KABE/ABE METAR and TAF weather

Enter ICAO airport designator
Station Type Date Time Source
KABE METAR 2020/01/18 20:51 UTC NOAA

KABE 182051Z 17006KT 4SM UP BKN015 BKN022 OVC050 M04/M08 A3014 RMK AO2 UPB32SNE32B42E51 SLP211 P0003 60009 T10391078 56061


Station Type Date Time Source
KABE Decoded METAR 2020/01/18 20:51 UTC NOAA

LEHIGH VALLEY INTERNATIONAL AIRPORT, PA, United States (KABE) 40-39N 075-27W 114M
Jan 18, 2020 - 03:51 PM EST / 2020.01.18 2051 UTC
Wind: from the S (170 degrees) at 7 MPH (6 KT):0
Visibility: 4 mile(s):0
Sky conditions: overcast
Weather: precipitation
Precipitation last hour: 0.03 inches
Temperature: 25.0 F (-3.9 C)
Windchill: 17 F (-8 C):1
Dew Point: 18.0 F (-7.8 C)
Relative Humidity: 74%
Pressure (altimeter): 30.14 in. Hg (1020 hPa)
Pressure tendency: 0.18 inches (6.1 hPa) lower than three hours ago
ob: KABE 182051Z 17006KT 4SM UP BKN015 BKN022 OVC050 M04/M08 A3014 RMK AO2 UPB32SNE32B42E51 SLP211 P0003 60009 T10391078 56061
cycle: 21

Station Type Date Time Source
KABE TAF 2020/01/18 21:58 UTC NOAA

TAF
AMD KABE 182056Z 1821/1918 16006KT 3SM -SNPL BR OVC015 WS020/23035KT
FM182300 17010KT 3SM -FZRAPL BR OVC005 WS020/23035KT
FM190200 20009KT 3SM BR OVC005 WS020/23035KT
FM190600 23008KT 5SM BR OVC008
FM190800 26008KT P6SM OVC025
FM191100 26010KT P6SM BKN040

Example: see airport list